Time;durP1;ratioP1;P1;durP2;ratioP2;P2;SDS_P1;SDS_P2;PMS_P1;PMS_P2;Temp;Humidity;BMP_temperature;BMP_pressure;BME280_temperature;BME280_humidity;BME280_pressure;Samples;Min_cycle;Max_cycle;Signal;HPM_P1;HPM_P2
2024/01/16 08:36:47;;;;;;;5.20;1.20;;;0.80;99.90;;;;;;4970858;23;20266;-75
2024/01/16 08:39:15;;;;;;;5.20;1.10;;;0.80;99.90;;;;;;4958123;28;20291;-74
2024/01/16 08:41:42;;;;;;;2.23;0.80;;;0.90;99.90;;;;;;4974212;28;20633;-75
2024/01/16 08:44:09;;;;;;;1.43;0.97;;;1.00;99.90;;;;;;4957190;28;20295;-75
2024/01/16 08:46:36;;;;;;;2.43;0.90;;;1.10;99.90;;;;;;4956892;28;20662;-74
2024/01/16 08:49:02;;;;;;;2.87;1.03;;;1.10;99.90;;;;;;4956995;28;20307;-73
2024/01/16 08:51:29;;;;;;;1.90;1.00;;;1.10;99.90;;;;;;4956857;28;20298;-75
2024/01/16 08:53:57;;;;;;;2.03;0.70;;;1.20;99.90;;;;;;4957154;28;20203;-76
2024/01/16 08:56:24;;;;;;;4.23;1.10;;;1.30;99.90;;;;;;4957078;28;20204;-75
2024/01/16 08:58:51;;;;;;;1.97;0.83;;;1.40;99.90;;;;;;4956336;28;20214;-75
2024/01/16 09:01:18;;;;;;;1.87;0.83;;;1.40;99.90;;;;;;4956316;28;20334;-74
2024/01/16 09:03:45;;;;;;;2.70;1.10;;;1.40;99.90;;;;;;4956691;28;20234;-77
2024/01/16 09:06:11;;;;;;;1.73;1.00;;;1.40;99.90;;;;;;4956360;28;20210;-76
2024/01/16 09:08:38;;;;;;;2.97;1.23;;;1.50;99.90;;;;;;4956701;28;20299;-77
2024/01/16 09:11:06;;;;;;;3.20;1.67;;;1.60;99.90;;;;;;4956520;28;20218;-77
2024/01/16 09:13:33;;;;;;;2.00;0.63;;;1.70;99.90;;;;;;4956682;28;20239;-76
2024/01/16 09:16:00;;;;;;;1.27;0.70;;;1.60;99.90;;;;;;4956405;28;20294;-76
2024/01/16 09:18:27;;;;;;;7.40;1.13;;;1.60;99.90;;;;;;4956223;28;20216;-76
2024/01/16 09:20:54;;;;;;;3.10;0.90;;;1.70;99.90;;;;;;4956128;28;20239;-77
2024/01/16 09:23:21;;;;;;;2.60;0.73;;;1.60;99.90;;;;;;4956037;28;20576;-75
2024/01/16 09:25:48;;;;;;;5.60;1.03;;;1.50;99.90;;;;;;4956400;28;20207;-77
2024/01/16 09:28:16;;;;;;;2.77;1.00;;;1.40;99.90;;;;;;4956357;28;20219;-75
2024/01/16 09:30:43;;;;;;;7.37;0.67;;;1.40;99.90;;;;;;4950437;28;20572;-76
2024/01/16 09:33:11;;;;;;;1.97;0.90;;;1.30;99.90;;;;;;4935384;29;20268;-76
2024/01/16 09:35:38;;;;;;;1.87;0.80;;;1.30;99.90;;;;;;4935684;29;20212;-77
2024/01/16 09:38:05;;;;;;;1.87;0.90;;;1.30;99.90;;;;;;4935011;29;20208;-73
2024/01/16 09:40:33;;;;;;;2.63;1.03;;;1.40;99.90;;;;;;4936329;29;20204;-74
2024/01/16 09:43:00;;;;;;;3.57;0.63;;;1.30;99.90;;;;;;4936675;29;20229;-75
2024/01/16 09:45:31;;;;;;;1.53;0.90;;;1.40;99.90;;;;;;4936779;29;20219;-75
2024/01/16 09:47:58;;;;;;;1.37;0.70;;;1.30;99.90;;;;;;4936381;29;20304;-74
2024/01/16 09:50:25;;;;;;;5.20;0.90;;;1.30;99.90;;;;;;4936517;29;20209;-75
2024/01/16 09:52:53;;;;;;;2.27;0.60;;;1.30;99.90;;;;;;4936493;29;20221;-74
2024/01/16 09:55:21;;;;;;;1.47;0.70;;;1.40;99.90;;;;;;4936441;29;20672;-73
2024/01/16 09:57:52;;;;;;;1.90;0.40;;;1.30;99.90;;;;;;4936546;29;20208;-74
2024/01/16 10:00:20;;;;;;;5.77;0.97;;;1.40;99.90;;;;;;4936812;29;20554;-75
2024/01/16 10:02:48;;;;;;;6.77;1.20;;;1.50;99.90;;;;;;4936311;29;20731;-74
2024/01/16 10:05:15;;;;;;;4.27;1.00;;;1.60;99.90;;;;;;4936231;29;20299;-73
2024/01/16 10:07:44;;;;;;;4.17;0.93;;;1.50;99.90;;;;;;4936121;29;20211;-73
2024/01/16 10:10:11;;;;;;;1.70;0.70;;;1.50;99.90;;;;;;4936397;29;20212;-73
2024/01/16 10:12:39;;;;;;;0.70;0.40;;;1.60;99.90;;;;;;4935981;29;20233;-74
2024/01/16 10:15:08;;;;;;;1.57;0.87;;;1.70;99.90;;;;;;4936182;29;20212;-73
2024/01/16 10:17:39;;;;;;;0.70;0.30;;;1.80;99.90;;;;;;4936090;29;20219;-73
2024/01/16 10:20:13;;;;;;;1.33;0.73;;;2.00;99.90;;;;;;4936071;29;20209;-73
2024/01/16 10:22:40;;;;;;;2.27;0.77;;;1.80;99.90;;;;;;4935645;29;20245;-73
2024/01/16 10:25:09;;;;;;;1.83;0.67;;;1.80;99.90;;;;;;4936127;29;20304;-73
2024/01/16 10:27:37;;;;;;;1.30;0.60;;;1.70;99.90;;;;;;4936146;29;20212;-74
2024/01/16 10:30:05;;;;;;;2.03;0.90;;;1.70;99.90;;;;;;4936133;29;20209;-74
2024/01/16 10:32:34;;;;;;;3.23;1.20;;;1.80;99.90;;;;;;4935880;29;20316;-73
2024/01/16 10:35:08;;;;;;;7.07;1.20;;;1.80;99.90;;;;;;4936198;29;20211;-74
2024/01/16 10:37:53;;;;;;;2.43;1.00;;;1.90;99.90;;;;;;4935554;29;20224;-73
2024/01/16 10:40:21;;;;;;;2.50;0.87;;;1.90;99.90;;;;;;4935677;29;20676;-73
2024/01/16 10:42:57;;;;;;;4.43;0.87;;;1.90;99.90;;;;;;4935802;29;20240;-74
2024/01/16 10:45:24;;;;;;;5.70;0.60;;;1.90;99.90;;;;;;4935627;29;20631;-73
2024/01/16 10:48:02;;;;;;;1.33;0.70;;;1.90;99.90;;;;;;4935470;29;20759;-73
2024/01/16 10:50:30;;;;;;;0.87;0.57;;;1.90;99.90;;;;;;4935766;29;20215;-76
2024/01/16 10:53:01;;;;;;;2.17;0.70;;;1.90;99.90;;;;;;4935501;29;20228;-73
2024/01/16 10:55:30;;;;;;;5.37;0.80;;;2.00;99.90;;;;;;4935490;29;20235;-76
2024/01/16 10:57:58;;;;;;;1.80;0.63;;;2.00;99.90;;;;;;4935399;29;20205;-74
2024/01/16 11:00:28;;;;;;;2.03;0.63;;;2.00;99.90;;;;;;4935440;29;20264;-74
2024/01/16 11:03:02;;;;;;;2.73;1.00;;;2.00;99.90;;;;;;4935216;29;20250;-73
2024/01/16 11:05:33;;;;;;;1.60;0.83;;;1.90;99.90;;;;;;4935413;29;20861;-74
2024/01/16 11:08:02;;;;;;;3.47;0.80;;;1.90;99.90;;;;;;4935536;29;20304;-73
2024/01/16 11:10:29;;;;;;;3.17;1.13;;;2.00;99.90;;;;;;4935509;29;20289;-75
2024/01/16 11:13:00;;;;;;;1.43;0.50;;;2.00;99.90;;;;;;4935094;29;20315;-75
2024/01/16 11:15:28;;;;;;;1.47;0.73;;;2.00;99.90;;;;;;4934867;29;20300;-75
2024/01/16 11:17:56;;;;;;;0.87;0.53;;;2.10;99.90;;;;;;4935378;29;20369;-75
2024/01/16 11:20:23;;;;;;;2.47;1.03;;;2.10;99.90;;;;;;4935606;29;20320;-73
2024/01/16 11:22:59;;;;;;;2.47;0.93;;;2.10;99.90;;;;;;4935261;29;20332;-76
2024/01/16 11:25:32;;;;;;;2.00;0.90;;;2.10;99.90;;;;;;4935482;29;20267;-75
2024/01/16 11:28:10;;;;;;;1.40;0.77;;;2.20;99.90;;;;;;4935377;29;20572;-75
2024/01/16 11:30:37;;;;;;;1.43;0.73;;;2.30;99.90;;;;;;4935618;29;20311;-75
2024/01/16 11:33:05;;;;;;;2.03;0.60;;;2.40;99.90;;;;;;4935217;29;20315;-74
2024/01/16 11:35:36;;;;;;;1.83;0.77;;;2.50;99.90;;;;;;4935152;29;20213;-75
2024/01/16 11:38:12;;;;;;;2.40;0.83;;;2.50;99.90;;;;;;4935087;29;20664;-75
2024/01/16 11:40:39;;;;;;;1.70;0.70;;;2.60;99.90;;;;;;4935527;29;20568;-74
2024/01/16 11:43:38;;;;;;;2.00;0.80;;;2.60;99.90;;;;;;4935237;29;20241;-74
2024/01/16 11:46:07;;;;;;;2.93;0.70;;;2.60;99.90;;;;;;4935295;29;20224;-75
2024/01/16 11:48:34;;;;;;;6.13;1.00;;;2.40;99.90;;;;;;4934799;29;20209;-75
2024/01/16 11:51:01;;;;;;;1.17;0.60;;;2.40;99.90;;;;;;4935590;29;20209;-75
2024/01/16 11:53:38;;;;;;;1.73;0.60;;;2.60;99.90;;;;;;4935017;29;20651;-75
2024/01/16 11:56:49;;;;;;;1.80;0.43;;;2.60;99.90;;;;;;4935095;29;20243;-76
2024/01/16 11:59:44;;;;;;;2.27;0.53;;;2.70;99.90;;;;;;4934914;29;20303;-75
2024/01/16 12:02:19;;;;;;;1.40;0.63;;;2.70;99.90;;;;;;4938011;29;20240;-76
2024/01/16 12:04:54;;;;;;;2.10;0.70;;;2.60;99.90;;;;;;4938615;29;20216;-74
2024/01/16 12:07:21;;;;;;;0.53;0.40;;;2.70;99.90;;;;;;4938670;29;20212;-75
2024/01/16 12:09:49;;;;;;;1.60;0.50;;;2.70;99.90;;;;;;4938259;29;20288;-75
2024/01/16 12:12:18;;;;;;;2.53;0.70;;;2.80;99.90;;;;;;4938198;29;20233;-75
2024/01/16 12:14:53;;;;;;;1.90;0.40;;;2.70;99.90;;;;;;4938208;29;20213;-75
2024/01/16 12:17:20;;;;;;;1.87;0.80;;;2.80;99.90;;;;;;4938359;29;20209;-74
2024/01/16 12:19:49;;;;;;;1.47;0.53;;;2.70;99.90;;;;;;4938040;29;20245;-74
2024/01/16 12:22:18;;;;;;;1.13;0.50;;;2.70;99.90;;;;;;4937721;29;20712;-76
2024/01/16 12:24:45;;;;;;;3.33;1.13;;;2.60;99.90;;;;;;4938244;29;20217;-75
2024/01/16 12:27:14;;;;;;;6.50;0.67;;;2.70;99.90;;;;;;4938204;29;20216;-75
2024/01/16 12:29:41;;;;;;;1.10;0.60;;;2.70;99.90;;;;;;4938049;29;20211;-75
2024/01/16 12:32:09;;;;;;;0.73;0.40;;;2.70;99.90;;;;;;4938174;29;20229;-75
2024/01/16 12:34:43;;;;;;;1.43;0.60;;;2.80;99.90;;;;;;4938106;29;20624;-75
2024/01/16 12:37:10;;;;;;;1.23;0.87;;;2.80;99.90;;;;;;4937980;29;20311;-74
2024/01/16 12:39:37;;;;;;;1.17;0.40;;;2.80;99.90;;;;;;4937808;29;20212;-75
2024/01/16 12:42:04;;;;;;;1.53;0.50;;;3.00;99.90;;;;;;4937660;29;20548;-74
2024/01/16 12:44:33;;;;;;;1.27;0.63;;;3.00;99.90;;;;;;4937959;29;20213;-78
2024/01/16 12:47:01;;;;;;;1.53;0.60;;;3.00;99.90;;;;;;4938303;29;20215;-77
2024/01/16 12:49:29;;;;;;;3.10;1.03;;;3.00;99.90;;;;;;4937738;29;20248;-77
2024/01/16 12:52:18;;;;;;;1.03;0.70;;;3.10;99.90;;;;;;4937531;29;20225;-77
2024/01/16 12:54:45;;;;;;;0.93;0.47;;;3.20;99.90;;;;;;4937620;29;20239;-77
2024/01/16 12:57:17;;;;;;;0.90;0.60;;;3.20;99.90;;;;;;4937591;29;20209;-76
2024/01/16 12:59:45;;;;;;;3.03;0.93;;;3.10;99.90;;;;;;4937421;29;20739;-77
2024/01/16 13:02:21;;;;;;;1.10;0.67;;;3.10;99.90;;;;;;4937577;29;20275;-77
2024/01/16 13:04:48;;;;;;;2.50;0.90;;;3.00;99.90;;;;;;4937233;29;20596;-77
2024/01/16 13:07:17;;;;;;;2.50;0.67;;;3.00;99.90;;;;;;4937262;29;20213;-78
2024/01/16 13:09:44;;;;;;;2.93;0.87;;;3.10;99.90;;;;;;4937295;29;20619;-77
2024/01/16 13:12:20;;;;;;;1.50;0.80;;;3.20;99.90;;;;;;4937153;29;20774;-76
2024/01/16 13:14:48;;;;;;;5.10;0.93;;;3.20;99.90;;;;;;4937081;29;20300;-76
2024/01/16 13:17:15;;;;;;;1.23;0.67;;;3.30;99.90;;;;;;4937272;29;20300;-78
2024/01/16 13:19:43;;;;;;;6.80;0.83;;;3.30;99.90;;;;;;4937378;29;20639;-77
2024/01/16 13:22:09;;;;;;;2.23;0.70;;;3.30;99.90;;;;;;4937175;29;20240;-78
2024/01/16 13:24:35;;;;;;;2.43;0.60;;;3.30;99.90;;;;;;4937089;29;20645;-77
2024/01/16 13:27:04;;;;;;;1.60;0.77;;;3.20;99.90;;;;;;4937173;29;20212;-77
2024/01/16 13:29:35;;;;;;;0.93;0.57;;;3.20;99.90;;;;;;4937071;29;20212;-77
2024/01/16 13:32:04;;;;;;;1.33;0.70;;;3.20;99.90;;;;;;4937335;29;20244;-76
2024/01/16 13:34:32;;;;;;;1.20;0.60;;;3.20;99.90;;;;;;4936849;29;20208;-76
2024/01/16 13:37:01;;;;;;;2.97;1.13;;;3.20;99.90;;;;;;4936710;29;20283;-77
2024/01/16 13:39:28;;;;;;;1.70;0.50;;;3.10;99.90;;;;;;4937403;29;20276;-77
2024/01/16 13:41:55;;;;;;;2.53;0.80;;;3.10;99.90;;;;;;4937285;29;20595;-76
2024/01/16 13:44:22;;;;;;;2.87;0.60;;;3.10;99.90;;;;;;4936908;29;20205;-77
2024/01/16 13:46:49;;;;;;;2.17;0.50;;;3.10;99.90;;;;;;4936576;29;20205;-75
2024/01/16 13:49:17;;;;;;;1.40;0.67;;;3.00;99.90;;;;;;4936558;29;20304;-75
2024/01/16 13:51:45;;;;;;;1.17;0.80;;;3.00;99.90;;;;;;4936376;29;20227;-75
2024/01/16 13:54:12;;;;;;;2.13;0.53;;;3.10;99.90;;;;;;4936780;29;20216;-76
2024/01/16 13:56:39;;;;;;;2.73;0.50;;;3.10;99.90;;;;;;4936739;29;20299;-75
2024/01/16 13:59:06;;;;;;;7.10;0.93;;;3.10;99.90;;;;;;4936480;29;20300;-76
2024/01/16 14:01:33;;;;;;;1.50;0.63;;;3.10;99.90;;;;;;4936262;29;20204;-74
2024/01/16 14:04:00;;;;;;;2.30;0.77;;;3.10;99.90;;;;;;4936281;29;20233;-75
2024/01/16 14:06:28;;;;;;;0.80;0.60;;;3.00;99.90;;;;;;4936132;29;20671;-75
2024/01/16 14:08:55;;;;;;;4.30;0.67;;;3.00;99.90;;;;;;4936278;29;20295;-77
2024/01/16 14:11:21;;;;;;;4.03;0.70;;;3.10;99.90;;;;;;4936300;29;20212;-76
2024/01/16 14:13:49;;;;;;;1.90;0.70;;;3.00;99.90;;;;;;4936593;29;20324;-75
2024/01/16 14:16:16;;;;;;;2.37;0.70;;;3.00;99.90;;;;;;4936375;29;20209;-75
2024/01/16 14:18:42;;;;;;;2.60;1.03;;;3.00;99.90;;;;;;4935867;29;20299;-75
2024/01/16 14:21:09;;;;;;;1.63;0.60;;;3.00;99.90;;;;;;4936097;29;20219;-75
2024/01/16 14:23:38;;;;;;;1.40;0.70;;;3.10;99.90;;;;;;4935384;29;20699;-76
2024/01/16 14:26:05;;;;;;;2.67;0.90;;;3.20;99.90;;;;;;4936009;29;20209;-72
2024/01/16 14:28:33;;;;;;;1.67;0.80;;;3.20;99.90;;;;;;4936423;29;20551;-76
2024/01/16 14:31:00;;;;;;;2.73;0.63;;;3.20;99.90;;;;;;4935973;29;20212;-77
2024/01/16 14:33:27;;;;;;;6.57;0.97;;;3.20;99.90;;;;;;4936574;29;20236;-75
2024/01/16 14:35:54;;;;;;;0.90;0.80;;;3.20;99.90;;;;;;4935754;29;20579;-77
2024/01/16 14:38:21;;;;;;;2.40;1.00;;;3.10;99.90;;;;;;4936032;29;20244;-77
2024/01/16 14:40:51;;;;;;;3.80;0.60;;;3.10;99.90;;;;;;4935860;29;20215;-77
2024/01/16 14:43:18;;;;;;;1.63;0.87;;;3.10;99.90;;;;;;4935759;29;20334;-76
2024/01/16 14:45:45;;;;;;;2.03;0.70;;;3.00;99.90;;;;;;4936048;29;20307;-75
2024/01/16 14:48:12;;;;;;;2.30;0.80;;;2.90;99.90;;;;;;4935586;29;20697;-76
2024/01/16 14:50:39;;;;;;;5.10;0.53;;;3.00;99.90;;;;;;4935483;29;20204;-76
2024/01/16 14:53:06;;;;;;;1.40;0.60;;;3.00;99.90;;;;;;4935604;29;20237;-75
2024/01/16 14:55:33;;;;;;;2.20;0.70;;;3.00;99.90;;;;;;4935674;29;20213;-75
2024/01/16 14:58:02;;;;;;;2.07;0.70;;;3.00;99.90;;;;;;4935833;29;20216;-76
2024/01/16 15:00:30;;;;;;;1.33;0.87;;;3.10;99.90;;;;;;4935405;29;20648;-76
2024/01/16 15:02:57;;;;;;;1.17;0.50;;;3.20;99.90;;;;;;4935428;29;20240;-76
2024/01/16 15:05:24;;;;;;;2.30;0.60;;;3.00;99.90;;;;;;4935398;29;20209;-78
2024/01/16 15:07:52;;;;;;;1.60;0.93;;;2.90;99.90;;;;;;4935413;29;20215;-74
2024/01/16 15:10:20;;;;;;;2.07;0.60;;;2.80;99.90;;;;;;4935599;29;20205;-77
2024/01/16 15:12:47;;;;;;;0.67;0.50;;;2.70;99.90;;;;;;4935237;29;20239;-76
2024/01/16 15:15:16;;;;;;;1.03;0.60;;;2.80;99.90;;;;;;4935225;29;20597;-75
2024/01/16 15:17:44;;;;;;;3.63;0.70;;;2.80;99.90;;;;;;4935313;29;20232;-76
2024/01/16 15:20:12;;;;;;;4.47;1.07;;;2.90;99.90;;;;;;4935497;29;20285;-76
2024/01/16 15:22:39;;;;;;;0.80;0.50;;;2.90;99.90;;;;;;4935207;29;20328;-77
2024/01/16 15:25:07;;;;;;;2.07;0.60;;;2.80;99.90;;;;;;4935557;29;20295;-76
2024/01/16 15:27:35;;;;;;;1.23;0.50;;;2.80;99.90;;;;;;4935681;29;20204;-76
2024/01/16 15:30:03;;;;;;;2.50;0.77;;;2.70;99.90;;;;;;4935420;29;20620;-76
2024/01/16 15:32:32;;;;;;;2.23;1.07;;;2.60;99.90;;;;;;4935282;29;20703;-76
2024/01/16 15:35:00;;;;;;;2.83;1.00;;;2.60;99.90;;;;;;4937291;29;20204;-77
2024/01/16 15:37:26;;;;;;;1.77;0.90;;;2.60;99.90;;;;;;4938976;29;20268;-77
2024/01/16 15:39:53;;;;;;;4.50;1.63;;;2.60;99.90;;;;;;4938874;29;20215;-76
2024/01/16 15:42:20;;;;;;;1.37;1.00;;;2.70;99.90;;;;;;4939013;29;20233;-76
2024/01/16 15:44:47;;;;;;;1.57;0.70;;;2.60;99.90;;;;;;4938525;29;20261;-77
2024/01/16 15:47:14;;;;;;;1.37;0.60;;;2.50;99.90;;;;;;4938492;29;20660;-77
2024/01/16 15:49:42;;;;;;;1.67;0.73;;;2.40;99.90;;;;;;4938875;29;20300;-75
2024/01/16 15:52:09;;;;;;;4.27;1.13;;;2.30;99.90;;;;;;4938561;29;20229;-77
2024/01/16 15:54:36;;;;;;;1.73;0.80;;;2.40;99.90;;;;;;4938437;29;20228;-77
2024/01/16 15:57:04;;;;;;;2.07;1.37;;;2.40;99.90;;;;;;4938774;29;20271;-76
2024/01/16 15:59:31;;;;;;;2.83;0.70;;;2.40;99.90;;;;;;4938584;29;20568;-76
2024/01/16 16:01:58;;;;;;;4.13;0.80;;;2.30;99.90;;;;;;4938586;29;20595;-77
2024/01/16 16:04:25;;;;;;;1.47;0.77;;;2.30;99.90;;;;;;4938205;29;20232;-77
2024/01/16 16:06:53;;;;;;;3.17;1.10;;;2.20;99.90;;;;;;4937973;29;20212;-76
2024/01/16 16:09:20;;;;;;;1.97;0.97;;;2.20;99.90;;;;;;4938245;29;20656;-75
2024/01/16 16:11:49;;;;;;;2.77;1.20;;;2.10;99.90;;;;;;4938211;29;20213;-76
2024/01/16 16:14:16;;;;;;;1.80;0.70;;;2.00;99.90;;;;;;4937959;29;20376;-77
2024/01/16 16:16:44;;;;;;;3.17;0.90;;;1.90;99.90;;;;;;4938155;29;20304;-76
2024/01/16 16:19:11;;;;;;;3.20;1.37;;;1.80;99.90;;;;;;4938204;29;20208;-76
2024/01/16 16:21:38;;;;;;;5.70;1.63;;;1.70;99.90;;;;;;4938408;29;20304;-76
2024/01/16 16:24:06;;;;;;;2.67;1.07;;;1.60;99.90;;;;;;4938409;29;20261;-77
2024/01/16 16:26:35;;;;;;;2.47;1.03;;;1.50;99.90;;;;;;4938222;29;20300;-78
2024/01/16 16:29:04;;;;;;;1.93;1.20;;;1.40;99.90;;;;;;4937833;29;20526;-74
2024/01/16 16:31:32;;;;;;;3.57;2.00;;;1.30;99.90;;;;;;4937740;29;20304;-76
2024/01/16 16:33:59;;;;;;;4.03;1.57;;;1.20;99.90;;;;;;4937851;29;20747;-76
2024/01/16 16:36:27;;;;;;;2.77;1.33;;;1.00;99.90;;;;;;4937803;29;20575;-77
2024/01/16 16:38:55;;;;;;;3.33;1.03;;;1.00;99.90;;;;;;4937997;29;20289;-77
2024/01/16 16:41:23;;;;;;;6.50;1.87;;;1.00;99.90;;;;;;4937914;29;20209;-74
2024/01/16 16:43:50;;;;;;;4.17;1.50;;;1.00;99.90;;;;;;4937500;29;20335;-76
2024/01/16 16:46:17;;;;;;;5.57;1.00;;;1.00;99.90;;;;;;4936930;29;20213;-77
2024/01/16 16:48:45;;;;;;;4.90;1.03;;;1.00;99.90;;;;;;4937388;29;20304;-75
2024/01/16 16:51:13;;;;;;;4.10;1.10;;;1.00;99.90;;;;;;4937499;29;20233;-75
2024/01/16 16:53:40;;;;;;;1.50;0.80;;;0.90;99.90;;;;;;4937177;29;20238;-75
2024/01/16 16:56:11;;;;;;;2.77;1.13;;;0.80;99.90;;;;;;4937636;29;20241;-77
2024/01/16 16:58:42;;;;;;;3.60;1.20;;;0.80;99.90;;;;;;4937551;29;20215;-77
2024/01/16 17:01:09;;;;;;;2.40;0.97;;;0.80;99.90;;;;;;4937594;29;20212;-77
2024/01/16 17:03:36;;;;;;;3.30;0.93;;;0.80;99.90;;;;;;4937555;29;20250;-76
2024/01/16 17:06:04;;;;;;;4.17;1.00;;;0.80;99.90;;;;;;4937153;29;20215;-75
2024/01/16 17:08:31;;;;;;;8.93;4.50;;;0.80;99.90;;;;;;4937542;29;20213;-75
2024/01/16 17:10:59;;;;;;;1.87;0.97;;;0.80;99.90;;;;;;4937349;29;20209;-76
2024/01/16 17:13:25;;;;;;;3.37;1.13;;;0.70;99.90;;;;;;4937116;29;20229;-77
2024/01/16 17:15:54;;;;;;;2.63;1.30;;;0.70;99.90;;;;;;4936940;29;20237;-77
2024/01/16 17:18:20;;;;;;;4.03;1.70;;;0.70;99.90;;;;;;4937306;29;20209;-76
2024/01/16 17:20:47;;;;;;;3.33;1.00;;;0.60;99.90;;;;;;4937108;29;20575;-76
2024/01/16 17:23:15;;;;;;;6.10;1.80;;;0.60;99.90;;;;;;4937260;29;20247;-76
2024/01/16 17:25:42;;;;;;;5.30;1.53;;;0.60;99.90;;;;;;4937184;29;20209;-77
2024/01/16 17:28:09;;;;;;;3.53;1.27;;;0.60;99.90;;;;;;4936917;29;20208;-76
2024/01/16 17:30:35;;;;;;;3.13;1.43;;;0.60;99.90;;;;;;4936836;29;20291;-75
2024/01/16 17:33:04;;;;;;;9.73;2.07;;;0.80;99.90;;;;;;4936706;29;20243;-74
2024/01/16 17:35:31;;;;;;;5.77;2.00;;;0.70;99.90;;;;;;4936588;29;20291;-75
2024/01/16 17:37:58;;;;;;;5.90;2.30;;;0.60;99.90;;;;;;4936673;29;20642;-74
2024/01/16 17:40:24;;;;;;;7.43;1.70;;;0.50;99.90;;;;;;4941440;29;20207;-74
2024/01/16 17:42:51;;;;;;;2.80;1.27;;;0.50;99.90;;;;;;4954943;28;20232;-75
2024/01/16 17:45:18;;;;;;;6.27;1.77;;;0.60;99.90;;;;;;4954241;28;20299;-74
2024/01/16 17:47:45;;;;;;;3.50;1.80;;;0.50;99.90;;;;;;4954788;28;20291;-74
2024/01/16 17:50:13;;;;;;;4.30;2.00;;;0.40;99.90;;;;;;4954647;28;20214;-75
2024/01/16 17:52:40;;;;;;;2.97;1.80;;;0.40;99.90;;;;;;4954635;28;20235;-75
2024/01/16 17:55:08;;;;;;;4.13;1.90;;;0.30;99.90;;;;;;4955324;28;20249;-75
2024/01/16 17:57:35;;;;;;;5.57;2.27;;;0.40;99.90;;;;;;4953374;28;20215;-76
2024/01/16 18:00:04;;;;;;;6.87;2.10;;;0.30;99.90;;;;;;4954366;28;20218;-74
2024/01/16 18:02:31;;;;;;;4.07;2.00;;;0.20;99.90;;;;;;4954625;28;20568;-76
2024/01/16 18:04:58;;;;;;;8.47;1.77;;;0.30;99.90;;;;;;4954431;28;20328;-75
2024/01/16 18:07:26;;;;;;;7.57;2.10;;;0.30;99.90;;;;;;4954607;28;20295;-74
2024/01/16 18:09:53;;;;;;;5.80;2.40;;;0.30;99.90;;;;;;4952042;28;20212;-76
2024/01/16 18:12:21;;;;;;;4.17;2.23;;;0.20;99.90;;;;;;4944531;28;20320;-77
2024/01/16 18:14:48;;;;;;;2.83;1.63;;;0.20;99.90;;;;;;4952434;29;20303;-78
2024/01/16 18:17:15;;;;;;;6.07;1.93;;;0.20;99.90;;;;;;4954172;28;20200;-77
2024/01/16 18:19:44;;;;;;;3.83;1.87;;;0.10;99.90;;;;;;4954550;28;20214;-74
2024/01/16 18:22:10;;;;;;;3.40;2.23;;;0.10;99.90;;;;;;4954051;28;20259;-75
2024/01/16 18:24:38;;;;;;;5.73;1.83;;;0.00;99.90;;;;;;4954626;28;20246;-75
2024/01/16 18:27:07;;;;;;;3.07;1.73;;;0.00;99.90;;;;;;4954394;28;20212;-76
2024/01/16 18:29:36;;;;;;;11.83;2.30;;;0.00;99.90;;;;;;4954731;28;20208;-76
2024/01/16 18:32:04;;;;;;;8.00;3.23;;;0.00;99.90;;;;;;4954013;28;20583;-76
2024/01/16 18:34:31;;;;;;;5.37;2.30;;;0.10;99.90;;;;;;4954530;28;20208;-76
2024/01/16 18:36:58;;;;;;;5.27;2.03;;;0.00;99.90;;;;;;4953934;28;20222;-76
2024/01/16 18:39:25;;;;;;;8.37;2.90;;;0.00;99.90;;;;;;4954526;28;20240;-76
2024/01/16 18:41:53;;;;;;;6.40;2.47;;;0.10;99.90;;;;;;4952847;28;20223;-75
2024/01/16 18:44:20;;;;;;;2.53;1.93;;;0.10;99.90;;;;;;4950200;29;20243;-75
2024/01/16 18:46:47;;;;;;;4.67;2.70;;;0.10;99.90;;;;;;4944290;28;20681;-76
2024/01/16 18:49:15;;;;;;;7.77;2.50;;;0.20;99.90;;;;;;4954228;28;20295;-75
2024/01/16 18:51:42;;;;;;;4.50;1.90;;;0.10;99.90;;;;;;4954211;28;20215;-76
2024/01/16 18:54:09;;;;;;;2.60;1.70;;;0.20;99.90;;;;;;4953493;28;20208;-75
2024/01/16 18:56:36;;;;;;;3.60;1.77;;;0.20;99.90;;;;;;4947147;28;20655;-76
2024/01/16 18:59:06;;;;;;;3.30;1.77;;;0.20;99.90;;;;;;4945959;29;20204;-77
2024/01/16 19:01:34;;;;;;;2.70;2.03;;;0.30;99.90;;;;;;4953511;28;20204;-76
2024/01/16 19:04:01;;;;;;;4.63;2.10;;;0.30;99.90;;;;;;4952800;28;20232;-75
2024/01/16 19:06:28;;;;;;;2.60;1.63;;;0.30;99.90;;;;;;4953046;28;20200;-77
2024/01/16 19:08:56;;;;;;;3.87;1.60;;;0.30;99.90;;;;;;4952999;28;20208;-76
2024/01/16 19:11:22;;;;;;;5.97;2.33;;;0.30;99.90;;;;;;4952468;28;20235;-75
2024/01/16 19:13:49;;;;;;;7.07;2.33;;;0.30;99.90;;;;;;4953663;28;20587;-76
2024/01/16 19:16:17;;;;;;;4.80;2.43;;;0.30;99.90;;;;;;4952769;28;20218;-76
2024/01/16 19:18:45;;;;;;;8.57;2.43;;;0.30;99.90;;;;;;4938695;29;20304;-76
2024/01/16 19:21:12;;;;;;;6.30;2.57;;;0.20;99.90;;;;;;4953241;28;20232;-76
2024/01/16 19:23:39;;;;;;;2.07;1.30;;;0.20;99.90;;;;;;4953313;28;20232;-76
2024/01/16 19:26:08;;;;;;;3.63;2.10;;;0.20;99.90;;;;;;4953842;28;20232;-78
2024/01/16 19:28:35;;;;;;;3.77;1.97;;;0.20;99.90;;;;;;4953586;28;20255;-77
2024/01/16 19:31:04;;;;;;;5.23;2.47;;;0.20;99.90;;;;;;4942026;28;20205;-76
2024/01/16 19:33:32;;;;;;;3.77;2.03;;;0.20;99.90;;;;;;4952384;28;20271;-77
2024/01/16 19:36:01;;;;;;;5.53;2.23;;;0.10;99.90;;;;;;4945659;28;20208;-78
2024/01/16 19:38:28;;;;;;;8.37;2.47;;;0.10;99.90;;;;;;4953710;28;20212;-77
2024/01/16 19:40:55;;;;;;;6.27;1.90;;;0.00;99.90;;;;;;4953123;28;20683;-78
2024/01/16 19:43:21;;;;;;;8.93;2.90;;;0.00;99.90;;;;;;4953302;28;20315;-76
2024/01/16 19:45:49;;;;;;;5.70;2.27;;;0.00;99.90;;;;;;4955565;28;20249;-75
2024/01/16 19:48:16;;;;;;;2.97;1.60;;;0.00;99.90;;;;;;4957685;28;20212;-76
2024/01/16 19:50:44;;;;;;;4.07;2.20;;;0.00;99.90;;;;;;4957459;28;20299;-74
2024/01/16 19:53:12;;;;;;;7.03;2.57;;;0.00;99.90;;;;;;4950965;28;20315;-77
2024/01/16 19:55:40;;;;;;;3.77;1.77;;;0.00;99.90;;;;;;4953731;28;20219;-76
2024/01/16 19:58:08;;;;;;;4.13;2.90;;;0.00;99.90;;;;;;4953140;28;20204;-77
2024/01/16 20:00:36;;;;;;;3.93;1.83;;;0.00;99.90;;;;;;4944068;28;20209;-76
2024/01/16 20:03:06;;;;;;;6.77;2.30;;;-0.10;99.90;;;;;;4953142;28;20257;-75
2024/01/16 20:05:37;;;;;;;7.23;2.60;;;-0.10;99.90;;;;;;4944467;28;20236;-78
2024/01/16 20:08:06;;;;;;;4.70;1.77;;;0.00;99.90;;;;;;4953284;28;20788;-77
2024/01/16 20:10:33;;;;;;;4.17;1.60;;;-0.10;99.90;;;;;;4953034;28;20212;-77
2024/01/16 20:13:02;;;;;;;2.40;1.60;;;0.00;99.90;;;;;;4953319;28;20238;-76
2024/01/16 20:15:31;;;;;;;4.97;1.80;;;0.00;99.90;;;;;;4953303;28;20239;-77
2024/01/16 20:18:01;;;;;;;3.70;2.00;;;0.00;99.90;;;;;;4953522;28;20327;-77
2024/01/16 20:20:28;;;;;;;5.37;2.30;;;-0.10;99.90;;;;;;4953664;28;20552;-76
2024/01/16 20:22:55;;;;;;;2.80;1.37;;;-0.10;99.90;;;;;;4956792;28;20311;-76
2024/01/16 20:25:23;;;;;;;2.57;1.63;;;-0.10;99.90;;;;;;4956907;28;20279;-77
2024/01/16 20:27:51;;;;;;;5.93;2.07;;;-0.10;99.90;;;;;;4957254;28;20207;-76
2024/01/16 20:30:18;;;;;;;2.73;1.17;;;-0.10;99.90;;;;;;4957100;28;20259;-76
2024/01/16 20:32:46;;;;;;;2.60;1.63;;;-0.10;99.90;;;;;;4957566;28;20311;-77
2024/01/16 20:35:14;;;;;;;5.17;1.80;;;0.00;99.90;;;;;;4956794;28;20731;-77
2024/01/16 20:37:41;;;;;;;2.23;1.40;;;0.00;99.90;;;;;;4957001;28;20616;-76
2024/01/16 20:40:09;;;;;;;2.67;1.27;;;0.00;99.90;;;;;;4956749;28;20247;-76
2024/01/16 20:42:38;;;;;;;5.63;1.80;;;0.00;99.90;;;;;;4956764;28;20239;-76
2024/01/16 20:45:06;;;;;;;4.27;1.50;;;0.00;99.90;;;;;;4956468;28;20599;-77
2024/01/16 20:47:33;;;;;;;3.50;2.10;;;0.00;99.90;;;;;;4949771;29;20204;-76
2024/01/16 20:50:00;;;;;;;3.97;1.60;;;0.00;99.90;;;;;;4956246;28;20236;-74
2024/01/16 20:52:26;;;;;;;5.90;2.10;;;-0.10;99.90;;;;;;4956128;28;20232;-77
2024/01/16 20:54:53;;;;;;;3.30;1.97;;;0.00;99.90;;;;;;4956290;28;20291;-74
2024/01/16 20:57:20;;;;;;;3.47;1.67;;;0.00;99.90;;;;;;4956130;28;20208;-76
2024/01/16 20:59:48;;;;;;;1.97;1.40;;;0.00;99.90;;;;;;4956739;28;20230;-78
2024/01/16 21:02:15;;;;;;;2.90;1.80;;;0.00;99.90;;;;;;4956461;28;20228;-77
2024/01/16 21:04:44;;;;;;;3.07;1.57;;;0.00;99.90;;;;;;4957644;28;20793;-75
2024/01/16 21:07:12;;;;;;;3.67;1.63;;;0.00;99.90;;;;;;4956463;28;20238;-75
2024/01/16 21:09:39;;;;;;;3.77;1.43;;;0.00;99.90;;;;;;4958508;28;20208;-75
2024/01/16 21:12:07;;;;;;;5.87;1.53;;;0.00;99.90;;;;;;4956212;28;20234;-77
2024/01/16 21:14:34;;;;;;;6.83;1.70;;;0.00;99.90;;;;;;4956103;28;20212;-76
2024/01/16 21:17:07;;;;;;;2.00;1.47;;;-0.10;99.90;;;;;;4955806;28;20295;-75
2024/01/16 21:19:35;;;;;;;3.37;1.50;;;-0.20;99.90;;;;;;4955906;28;20663;-76
2024/01/16 21:22:02;;;;;;;3.60;1.77;;;-0.20;99.90;;;;;;4955489;28;20234;-76
2024/01/16 21:24:29;;;;;;;4.03;1.70;;;-0.10;99.90;;;;;;4956249;28;20306;-77
2024/01/16 21:26:56;;;;;;;4.90;1.53;;;-0.20;99.90;;;;;;4955497;28;20211;-77
2024/01/16 21:29:23;;;;;;;2.90;1.90;;;-0.20;99.90;;;;;;4955821;28;20219;-77
2024/01/16 21:31:52;;;;;;;2.57;1.27;;;-0.30;99.90;;;;;;4955510;28;20339;-77
2024/01/16 21:34:23;;;;;;;3.13;1.53;;;-0.30;99.90;;;;;;4955790;28;20204;-76
2024/01/16 21:36:51;;;;;;;4.50;1.63;;;-0.40;99.90;;;;;;4955398;28;20218;-75